Time;durP1;ratioP1;P1;durP2;ratioP2;P2;SDS_P1;SDS_P2;PMS_P1;PMS_P2;Temp;Humidity;BMP_temperature;BMP_pressure;BME280_temperature;BME280_humidity;BME280_pressure;Samples;Min_cycle;Max_cycle;Signal;HPM_P1;HPM_P2
2023/10/23 00:01:11;;;;;;;4.40;1.15;;;;;;;;;;10066828;28;20052;-72
2023/10/23 00:06:03;;;;;;;2.28;1.00;;;;;;;;;;10068549;28;20045;-74
2023/10/23 00:10:55;;;;;;;6.55;1.30;;;;;;;;;;10067112;28;20094;-73
2023/10/23 00:15:47;;;;;;;1.40;0.93;;;;;;;;;;10067758;28;20084;-73
2023/10/23 00:20:39;;;;;;;1.45;1.10;;;;;;;;;;10067710;28;20380;-73
2023/10/23 00:25:31;;;;;;;5.93;1.30;;;;;;;;;;10067228;28;20077;-72
2023/10/23 00:30:23;;;;;;;2.38;1.20;;;;;;;;;;10066683;28;20081;-74
2023/10/23 00:35:14;;;;;;;3.35;1.50;;;;;;;;;;10066844;28;20064;-73
2023/10/23 00:40:07;;;;;;;1.00;0.90;;;;;;;;;;10066564;28;20491;-73
2023/10/23 00:44:59;;;;;;;3.83;1.40;;;;;;;;;;10066509;28;20076;-70
2023/10/23 00:49:50;;;;;;;3.05;0.93;;;;;;;;;;10066306;28;20045;-73
2023/10/23 00:54:42;;;;;;;2.97;1.30;;;;;;;;;;10064239;28;20041;-72
2023/10/23 00:59:34;;;;;;;1.40;1.00;;;;;;;;;;10065136;28;20037;-71
2023/10/23 01:04:26;;;;;;;2.80;1.10;;;;;;;;;;10064028;28;20054;-73
2023/10/23 01:09:18;;;;;;;2.42;1.10;;;;;;;;;;10064333;28;20086;-73
2023/10/23 01:14:10;;;;;;;2.25;1.25;;;;;;;;;;10065874;28;20127;-74
2023/10/23 01:19:03;;;;;;;3.63;1.10;;;;;;;;;;10063143;28;20057;-73
2023/10/23 01:23:58;;;;;;;2.05;1.08;;;;;;;;;;10065029;28;20719;-72
2023/10/23 01:28:50;;;;;;;2.08;1.13;;;;;;;;;;10033859;28;20479;-74
2023/10/23 01:33:42;;;;;;;1.33;1.23;;;;;;;;;;10024152;28;20053;-72
2023/10/23 01:38:34;;;;;;;1.40;1.20;;;;;;;;;;10027752;28;20054;-74
2023/10/23 01:43:26;;;;;;;1.92;1.00;;;;;;;;;;10042386;28;20068;-73
2023/10/23 01:48:18;;;;;;;2.20;0.80;;;;;;;;;;10026475;28;20434;-73
2023/10/23 01:53:10;;;;;;;3.42;1.40;;;;;;;;;;10026473;28;20050;-74
2023/10/23 01:58:02;;;;;;;1.17;1.00;;;;;;;;;;10027409;28;20100;-75
2023/10/23 02:02:54;;;;;;;1.90;1.10;;;;;;;;;;10024263;28;20054;-75
2023/10/23 02:07:46;;;;;;;1.17;1.00;;;;;;;;;;10027755;28;20492;-75
2023/10/23 02:12:38;;;;;;;6.65;1.20;;;;;;;;;;10026632;28;20044;-73
2023/10/23 02:17:31;;;;;;;1.00;1.00;;;;;;;;;;10023968;28;20057;-73
2023/10/23 02:22:24;;;;;;;2.05;1.45;;;;;;;;;;10025019;28;20388;-73
2023/10/23 02:27:16;;;;;;;5.90;1.20;;;;;;;;;;10032335;28;20042;-72
2023/10/23 02:32:08;;;;;;;6.70;1.33;;;;;;;;;;10034572;28;20104;-70
2023/10/23 02:37:00;;;;;;;1.50;0.90;;;;;;;;;;10033727;28;20045;-73
2023/10/23 02:41:52;;;;;;;2.85;0.93;;;;;;;;;;10032782;28;20046;-75
2023/10/23 02:46:44;;;;;;;2.03;1.08;;;;;;;;;;10033312;28;20544;-73
2023/10/23 02:51:38;;;;;;;1.38;0.90;;;;;;;;;;10032687;28;20096;-72
2023/10/23 02:56:32;;;;;;;1.70;1.17;;;;;;;;;;10031673;28;20092;-76
2023/10/23 03:01:24;;;;;;;2.15;1.13;;;;;;;;;;10031812;28;20128;-73
2023/10/23 03:06:16;;;;;;;2.58;1.10;;;;;;;;;;10032620;28;20038;-73
2023/10/23 03:11:08;;;;;;;1.80;1.02;;;;;;;;;;10031362;28;20038;-72
2023/10/23 03:16:00;;;;;;;1.73;1.25;;;;;;;;;;10033150;28;20041;-74
2023/10/23 03:20:52;;;;;;;1.20;1.08;;;;;;;;;;10047210;28;20052;-72
2023/10/23 03:25:44;;;;;;;1.60;1.10;;;;;;;;;;10032719;28;20034;-73
2023/10/23 03:30:37;;;;;;;1.25;1.15;;;;;;;;;;10031928;28;20088;-72
2023/10/23 03:35:29;;;;;;;1.58;1.00;;;;;;;;;;10045559;28;20042;-72
2023/10/23 03:40:21;;;;;;;1.52;1.00;;;;;;;;;;10045885;28;20543;-74
2023/10/23 03:45:13;;;;;;;2.72;1.02;;;;;;;;;;10031308;28;20070;-73
2023/10/23 03:50:06;;;;;;;2.88;1.30;;;;;;;;;;10031668;28;20045;-74
2023/10/23 03:54:57;;;;;;;1.92;1.17;;;;;;;;;;10045282;28;20046;-73
2023/10/23 03:59:49;;;;;;;1.27;1.00;;;;;;;;;;10030420;28;20058;-73
2023/10/23 04:04:41;;;;;;;2.72;1.13;;;;;;;;;;10030519;28;20041;-73
2023/10/23 04:09:33;;;;;;;2.40;1.10;;;;;;;;;;10029033;28;20049;-72
2023/10/23 04:14:25;;;;;;;1.38;1.15;;;;;;;;;;10030366;28;20034;-72
2023/10/23 04:19:17;;;;;;;2.78;1.20;;;;;;;;;;10030126;28;20350;-73
2023/10/23 04:24:09;;;;;;;2.38;1.13;;;;;;;;;;10029356;28;20476;-72
2023/10/23 04:29:01;;;;;;;2.28;1.55;;;;;;;;;;10029394;28;20108;-72
2023/10/23 04:33:53;;;;;;;4.30;1.40;;;;;;;;;;10029426;28;20049;-73
2023/10/23 04:38:45;;;;;;;2.17;1.30;;;;;;;;;;10029443;28;20539;-72
2023/10/23 04:43:37;;;;;;;4.18;1.40;;;;;;;;;;10028460;28;20046;-72
2023/10/23 04:48:29;;;;;;;1.77;1.13;;;;;;;;;;10027810;28;20044;-73
2023/10/23 04:53:21;;;;;;;14.07;4.28;;;;;;;;;;10028993;28;20053;-73
2023/10/23 04:58:13;;;;;;;3.60;1.50;;;;;;;;;;10028436;28;20046;-74
2023/10/23 05:03:05;;;;;;;15.77;12.95;;;;;;;;;;10027948;28;20053;-73
2023/10/23 05:07:58;;;;;;;16.38;14.88;;;;;;;;;;10028971;28;20050;-73
2023/10/23 05:12:49;;;;;;;100.55;79.45;;;;;;;;;;10029652;28;20046;-72
2023/10/23 05:17:42;;;;;;;219.60;134.80;;;;;;;;;;10029307;28;20357;-72
2023/10/23 05:22:34;;;;;;;72.13;47.35;;;;;;;;;;10062942;28;20391;-73
2023/10/23 05:27:26;;;;;;;124.32;81.70;;;;;;;;;;10061479;28;20383;-74
2023/10/23 05:32:18;;;;;;;45.42;28.50;;;;;;;;;;10062242;28;20057;-74
2023/10/23 05:37:11;;;;;;;10.85;6.50;;;;;;;;;;10062472;28;20919;-74
2023/10/23 05:42:03;;;;;;;13.80;5.38;;;;;;;;;;10063047;28;20104;-74
2023/10/23 05:46:55;;;;;;;34.55;18.55;;;;;;;;;;10064869;28;20049;-73
2023/10/23 05:51:47;;;;;;;133.77;86.70;;;;;;;;;;10064938;28;20064;-74
2023/10/23 05:56:39;;;;;;;72.20;45.33;;;;;;;;;;10062946;28;20052;-74
2023/10/23 06:01:31;;;;;;;22.85;13.07;;;;;;;;;;10058278;28;20133;-75
2023/10/23 06:06:23;;;;;;;11.88;6.03;;;;;;;;;;10064762;28;20052;-74
2023/10/23 06:11:15;;;;;;;11.98;5.68;;;;;;;;;;10071188;28;20045;-74
2023/10/23 06:16:07;;;;;;;3.88;2.55;;;;;;;;;;10071469;28;20494;-74
2023/10/23 06:21:04;;;;;;;51.08;31.95;;;;;;;;;;10070270;28;20045;-73
2023/10/23 06:25:56;;;;;;;22.55;15.40;;;;;;;;;;10069762;28;20131;-74
2023/10/23 06:30:48;;;;;;;3.60;2.60;;;;;;;;;;10065884;28;20045;-74
2023/10/23 06:35:39;;;;;;;2.47;2.10;;;;;;;;;;10070490;28;20376;-74
2023/10/23 06:40:31;;;;;;;2.45;1.88;;;;;;;;;;10069925;28;20477;-74
2023/10/23 06:45:23;;;;;;;3.15;1.85;;;;;;;;;;10069628;28;20431;-74
2023/10/23 06:50:33;;;;;;;4.50;1.83;;;;;;;;;;10065789;28;20077;-74
2023/10/23 06:55:27;;;;;;;2.13;1.92;;;;;;;;;;10065505;28;20041;-77
2023/10/23 07:00:19;;;;;;;2.47;2.17;;;;;;;;;;10065848;28;20057;-76
2023/10/23 07:05:11;;;;;;;3.13;1.80;;;;;;;;;;10067947;28;20459;-76
2023/10/23 07:10:05;;;;;;;2.97;2.30;;;;;;;;;;10067800;28;20087;-77
2023/10/23 07:14:57;;;;;;;3.50;1.80;;;;;;;;;;10036429;28;20377;-77
2023/10/23 07:19:49;;;;;;;2.70;1.95;;;;;;;;;;10029544;28;20458;-76
2023/10/23 07:24:41;;;;;;;5.60;2.20;;;;;;;;;;10031440;28;20076;-77
2023/10/23 07:29:33;;;;;;;3.75;2.53;;;;;;;;;;10040147;28;20420;-77
2023/10/23 07:34:24;;;;;;;3.00;2.70;;;;;;;;;;10029712;28;20042;-77
2023/10/23 07:39:18;;;;;;;3.25;2.70;;;;;;;;;;10029310;28;20121;-77
2023/10/23 07:44:10;;;;;;;5.68;3.00;;;;;;;;;;10030646;28;20046;-77
2023/10/23 07:49:02;;;;;;;13.95;5.32;;;;;;;;;;10031270;28;20395;-76
2023/10/23 07:53:54;;;;;;;15.68;4.55;;;;;;;;;;10051649;28;20080;-77
2023/10/23 07:58:46;;;;;;;17.27;3.50;;;;;;;;;;10032578;28;20046;-74
2023/10/23 08:03:38;;;;;;;9.00;3.78;;;;;;;;;;10033644;28;20132;-75
2023/10/23 08:08:33;;;;;;;12.70;4.35;;;;;;;;;;10033685;28;20038;-75
2023/10/23 08:13:26;;;;;;;11.10;3.80;;;;;;;;;;10035271;28;20108;-74
2023/10/23 08:18:18;;;;;;;7.00;2.97;;;;;;;;;;10031975;28;20088;-75
2023/10/23 08:23:28;;;;;;;2.70;2.00;;;;;;;;;;10043408;28;20053;-75
2023/10/23 08:28:20;;;;;;;3.33;1.00;;;;;;;;;;10043231;28;20045;-76
2023/10/23 08:33:12;;;;;;;2.40;1.60;;;;;;;;;;10030640;28;20045;-73
2023/10/23 08:38:04;;;;;;;5.03;1.75;;;;;;;;;;10030195;28;20042;-75
2023/10/23 08:42:56;;;;;;;2.45;1.42;;;;;;;;;;10032532;28;20472;-74
2023/10/23 08:47:48;;;;;;;2.40;1.80;;;;;;;;;;10029450;28;20379;-76
2023/10/23 08:52:47;;;;;;;4.63;2.25;;;;;;;;;;10028532;28;20088;-76
2023/10/23 08:57:51;;;;;;;1.17;0.90;;;;;;;;;;10027852;28;20042;-75
2023/10/23 09:02:43;;;;;;;4.22;1.63;;;;;;;;;;10043880;28;20053;-75
2023/10/23 09:07:43;;;;;;;3.55;1.40;;;;;;;;;;10028543;28;20045;-75
2023/10/23 09:12:36;;;;;;;6.00;2.10;;;;;;;;;;10028268;28;20042;-76
2023/10/23 09:17:28;;;;;;;1.70;1.30;;;;;;;;;;10027989;28;20069;-76
2023/10/23 09:22:20;;;;;;;4.88;1.92;;;;;;;;;;10030379;28;20084;-75
2023/10/23 09:27:12;;;;;;;6.10;2.25;;;;;;;;;;10031479;28;20078;-75
2023/10/23 09:32:05;;;;;;;3.63;1.73;;;;;;;;;;10027709;28;20377;-76
2023/10/23 09:36:57;;;;;;;4.93;2.40;;;;;;;;;;10027390;28;20045;-76
2023/10/23 09:41:49;;;;;;;5.88;1.90;;;;;;;;;;10030883;28;20053;-75
2023/10/23 09:46:42;;;;;;;6.45;1.73;;;;;;;;;;10027027;28;20109;-76
2023/10/23 09:51:39;;;;;;;3.90;2.30;;;;;;;;;;10026845;28;20089;-75
2023/10/23 09:56:31;;;;;;;5.72;3.13;;;;;;;;;;10036421;28;20042;-75
2023/10/23 10:01:30;;;;;;;9.23;2.78;;;;;;;;;;10025398;28;20049;-76
2023/10/23 10:06:24;;;;;;;3.95;1.40;;;;;;;;;;10026566;28;20053;-75
2023/10/23 10:11:17;;;;;;;4.28;1.45;;;;;;;;;;10044851;28;20042;-76
2023/10/23 10:16:10;;;;;;;7.25;2.33;;;;;;;;;;10026353;28;20094;-75
2023/10/23 10:21:05;;;;;;;2.25;1.33;;;;;;;;;;10026719;28;20119;-75
2023/10/23 10:25:57;;;;;;;3.97;2.10;;;;;;;;;;10061736;28;20045;-76
2023/10/23 10:30:50;;;;;;;2.85;1.58;;;;;;;;;;10063423;28;20045;-76
2023/10/23 10:35:50;;;;;;;2.38;1.42;;;;;;;;;;10064342;28;20137;-76
2023/10/23 10:41:20;;;;;;;2.70;1.30;;;;;;;;;;10062736;28;20089;-76
2023/10/23 10:46:23;;;;;;;6.97;1.70;;;;;;;;;;9928206;28;20489;-76
2023/10/23 10:51:17;;;;;;;4.00;1.67;;;;;;;;;;10040891;28;20530;-76
2023/10/23 10:56:09;;;;;;;5.10;1.50;;;;;;;;;;10069507;28;20134;-75
2023/10/23 11:01:02;;;;;;;4.00;1.80;;;;;;;;;;10069557;28;20064;-76
2023/10/23 11:05:54;;;;;;;5.32;1.30;;;;;;;;;;10069363;28;20045;-75
2023/10/23 11:10:46;;;;;;;2.72;1.10;;;;;;;;;;10069642;28;20053;-76
2023/10/23 11:15:38;;;;;;;4.10;1.85;;;;;;;;;;10069686;28;20037;-75
2023/10/23 11:20:31;;;;;;;5.75;2.08;;;;;;;;;;10069492;28;20072;-76
2023/10/23 11:25:23;;;;;;;2.58;1.40;;;;;;;;;;10066190;28;20053;-76
2023/10/23 11:30:15;;;;;;;6.85;1.88;;;;;;;;;;10067829;28;20045;-76
2023/10/23 11:35:08;;;;;;;5.10;3.70;;;;;;;;;;10060870;28;20029;-76
2023/10/23 11:40:08;;;;;;;5.60;2.55;;;;;;;;;;10068390;28;20095;-75
2023/10/23 11:45:00;;;;;;;3.58;1.45;;;;;;;;;;10068738;28;20064;-74
2023/10/23 11:49:52;;;;;;;6.78;2.55;;;;;;;;;;10069002;28;20050;-77
2023/10/23 11:54:44;;;;;;;6.47;2.95;;;;;;;;;;10066620;28;20087;-76
2023/10/23 11:59:39;;;;;;;5.93;2.42;;;;;;;;;;10067846;28;20095;-76
2023/10/23 12:04:35;;;;;;;4.80;2.38;;;;;;;;;;10066845;28;20060;-76
2023/10/23 12:09:27;;;;;;;4.25;1.65;;;;;;;;;;10066386;28;20125;-77
2023/10/23 12:14:19;;;;;;;4.15;2.10;;;;;;;;;;10068367;28;20041;-77
2023/10/23 12:19:11;;;;;;;5.40;2.33;;;;;;;;;;10066653;28;20447;-77
2023/10/23 12:24:05;;;;;;;7.22;2.63;;;;;;;;;;10067171;28;20077;-77
2023/10/23 12:28:58;;;;;;;15.90;3.78;;;;;;;;;;10067136;28;20080;-77
2023/10/23 12:33:50;;;;;;;8.40;3.00;;;;;;;;;;10041824;28;20524;-77
2023/10/23 12:38:42;;;;;;;4.75;2.15;;;;;;;;;;10064885;28;20037;-76
2023/10/23 12:43:34;;;;;;;2.97;1.98;;;;;;;;;;10066788;28;20555;-76
2023/10/23 12:48:26;;;;;;;3.15;1.73;;;;;;;;;;10066116;28;20073;-76
2023/10/23 12:53:18;;;;;;;5.13;2.10;;;;;;;;;;10066874;28;20060;-76
2023/10/23 12:58:10;;;;;;;5.38;1.95;;;;;;;;;;10060589;28;20156;-75
2023/10/23 13:03:02;;;;;;;2.90;1.30;;;;;;;;;;10066030;28;20455;-76
2023/10/23 13:07:54;;;;;;;4.80;1.88;;;;;;;;;;10065525;28;20052;-77
2023/10/23 13:12:46;;;;;;;4.97;2.38;;;;;;;;;;10065988;28;20487;-78
2023/10/23 13:17:38;;;;;;;9.00;2.90;;;;;;;;;;10065497;28;20089;-74
2023/10/23 13:22:30;;;;;;;8.63;2.35;;;;;;;;;;10055148;28;20455;-76
2023/10/23 13:27:22;;;;;;;5.25;2.03;;;;;;;;;;10062601;28;20041;-76
2023/10/23 13:32:14;;;;;;;1.83;1.60;;;;;;;;;;10059944;28;20046;-76
2023/10/23 13:37:06;;;;;;;3.60;1.65;;;;;;;;;;10063454;28;20424;-76
2023/10/23 13:41:58;;;;;;;6.70;1.50;;;;;;;;;;10063219;28;20107;-76
2023/10/23 13:46:50;;;;;;;3.33;1.38;;;;;;;;;;10064534;28;20128;-77
2023/10/23 13:51:42;;;;;;;3.47;1.70;;;;;;;;;;10050966;28;20049;-77
2023/10/23 13:56:34;;;;;;;2.65;1.30;;;;;;;;;;10042097;28;20064;-76
2023/10/23 14:01:26;;;;;;;5.72;1.88;;;;;;;;;;10044828;28;20050;-76
2023/10/23 14:06:18;;;;;;;5.55;1.80;;;;;;;;;;10049514;28;20137;-76
2023/10/23 14:11:10;;;;;;;8.75;1.63;;;;;;;;;;10045189;28;20041;-75
2023/10/23 14:16:21;;;;;;;5.60;1.73;;;;;;;;;;10064034;28;20407;-74
2023/10/23 14:21:13;;;;;;;5.60;1.85;;;;;;;;;;10041022;28;20049;-76
2023/10/23 14:26:08;;;;;;;4.22;2.70;;;;;;;;;;10052677;28;20053;-74
2023/10/23 14:31:00;;;;;;;4.70;1.90;;;;;;;;;;10056700;28;20045;-74
2023/10/23 14:35:51;;;;;;;4.70;1.70;;;;;;;;;;10056932;28;20053;-76
2023/10/23 14:40:52;;;;;;;5.82;2.80;;;;;;;;;;10056319;28;20081;-75
2023/10/23 14:45:44;;;;;;;11.32;1.95;;;;;;;;;;10056917;28;20037;-75
2023/10/23 14:50:36;;;;;;;4.07;2.30;;;;;;;;;;10037727;28;20464;-74
2023/10/23 14:55:29;;;;;;;4.03;1.77;;;;;;;;;;10052828;28;20070;-75
2023/10/23 15:00:20;;;;;;;7.63;3.63;;;;;;;;;;10049375;28;20049;-76
2023/10/23 15:05:13;;;;;;;7.20;2.75;;;;;;;;;;10060256;28;20053;-74
2023/10/23 15:10:05;;;;;;;16.45;2.85;;;;;;;;;;10062564;28;20065;-74
2023/10/23 15:14:57;;;;;;;5.82;2.60;;;;;;;;;;10063217;28;20042;-74
2023/10/23 15:19:53;;;;;;;3.20;1.80;;;;;;;;;;10065806;28;20100;-74
2023/10/23 15:24:44;;;;;;;5.63;2.78;;;;;;;;;;10062168;28;20085;-73
2023/10/23 15:29:36;;;;;;;6.15;2.05;;;;;;;;;;10063949;28;20435;-74
2023/10/23 15:34:28;;;;;;;7.60;2.95;;;;;;;;;;10068242;28;20095;-75
2023/10/23 15:39:22;;;;;;;4.32;1.95;;;;;;;;;;10068977;28;20045;-74
2023/10/23 15:44:15;;;;;;;3.70;1.40;;;;;;;;;;10066932;28;20136;-75
2023/10/23 15:49:07;;;;;;;4.13;1.80;;;;;;;;;;10065943;28;20111;-75
2023/10/23 15:53:59;;;;;;;4.90;1.88;;;;;;;;;;10063566;28;20076;-75
2023/10/23 15:58:51;;;;;;;2.00;1.67;;;;;;;;;;10065095;28;20061;-73
2023/10/23 16:03:43;;;;;;;10.35;2.63;;;;;;;;;;10059880;28;20088;-75
2023/10/23 16:08:35;;;;;;;3.67;1.50;;;;;;;;;;10066203;28;20041;-75
2023/10/23 16:13:29;;;;;;;5.70;1.65;;;;;;;;;;10066289;28;20092;-75
2023/10/23 16:18:22;;;;;;;8.23;3.53;;;;;;;;;;10067516;28;20052;-75
2023/10/23 16:23:14;;;;;;;4.35;2.40;;;;;;;;;;10067744;28;20099;-75
2023/10/23 16:28:07;;;;;;;5.95;3.80;;;;;;;;;;10066834;28;20433;-76
2023/10/23 16:32:59;;;;;;;3.65;2.20;;;;;;;;;;10066637;28;20186;-75
2023/10/23 16:37:51;;;;;;;9.38;7.32;;;;;;;;;;10067262;28;20069;-75
2023/10/23 16:42:44;;;;;;;5.78;3.20;;;;;;;;;;10066276;28;20041;-74
2023/10/23 16:47:36;;;;;;;3.78;2.38;;;;;;;;;;10066473;28;20061;-75
2023/10/23 16:52:28;;;;;;;5.45;2.30;;;;;;;;;;10066458;28;20042;-75
2023/10/23 16:57:20;;;;;;;5.32;2.22;;;;;;;;;;10063535;28;20049;-74
2023/10/23 17:02:12;;;;;;;7.18;1.85;;;;;;;;;;10034810;28;20049;-75
2023/10/23 17:07:04;;;;;;;6.07;2.55;;;;;;;;;;10037602;28;20534;-75
2023/10/23 17:11:56;;;;;;;3.72;2.17;;;;;;;;;;10045507;28;20042;-74
2023/10/23 17:16:48;;;;;;;10.10;4.18;;;;;;;;;;10043164;28;20041;-75
2023/10/23 17:21:40;;;;;;;13.57;10.40;;;;;;;;;;10049611;28;20053;-73
2023/10/23 17:26:32;;;;;;;3.55;3.08;;;;;;;;;;10058035;28;20045;-75
2023/10/23 17:31:25;;;;;;;4.50;2.25;;;;;;;;;;10063710;28;20084;-75
2023/10/23 17:36:18;;;;;;;5.47;2.17;;;;;;;;;;10064569;28;20124;-75
2023/10/23 17:41:14;;;;;;;4.18;2.38;;;;;;;;;;10055622;28;20140;-75
2023/10/23 17:46:06;;;;;;;6.18;1.90;;;;;;;;;;10053804;28;20419;-75
2023/10/23 17:51:01;;;;;;;3.50;1.95;;;;;;;;;;10058099;28;20479;-75
2023/10/23 17:55:53;;;;;;;15.90;11.18;;;;;;;;;;10060144;28;20046;-75
2023/10/23 18:00:45;;;;;;;5.38;4.03;;;;;;;;;;10060736;28;20046;-74
2023/10/23 18:05:37;;;;;;;8.80;4.90;;;;;;;;;;10061559;28;20107;-76
2023/10/23 18:10:29;;;;;;;7.80;4.03;;;;;;;;;;10046007;28;20042;-73
2023/10/23 18:15:22;;;;;;;6.82;3.20;;;;;;;;;;10045041;28;20424;-74
2023/10/23 18:20:14;;;;;;;49.83;35.65;;;;;;;;;;10048250;28;20048;-74
2023/10/23 18:25:06;;;;;;;6.75;5.30;;;;;;;;;;10043840;28;20080;-75
2023/10/23 18:29:58;;;;;;;7.15;3.80;;;;;;;;;;10066661;28;20391;-74
2023/10/23 18:34:51;;;;;;;11.60;9.98;;;;;;;;;;10056410;28;20055;-74
2023/10/23 18:39:44;;;;;;;3.60;2.80;;;;;;;;;;10056955;28;20052;-75
2023/10/23 18:44:35;;;;;;;10.60;3.33;;;;;;;;;;10060998;28;20053;-74
2023/10/23 18:49:28;;;;;;;14.82;7.47;;;;;;;;;;10061456;28;20056;-74
2023/10/23 18:54:20;;;;;;;8.00;4.28;;;;;;;;;;10061552;28;20064;-76
2023/10/23 18:59:12;;;;;;;9.30;5.25;;;;;;;;;;10057558;28;20140;-74
2023/10/23 19:04:04;;;;;;;6.03;4.65;;;;;;;;;;10052552;28;20049;-75
2023/10/23 19:09:02;;;;;;;10.88;7.18;;;;;;;;;;10067558;28;20069;-75
2023/10/23 19:13:54;;;;;;;9.65;6.68;;;;;;;;;;10070250;28;20125;-73
2023/10/23 19:18:46;;;;;;;9.23;5.90;;;;;;;;;;10070464;28;20030;-74
2023/10/23 19:23:40;;;;;;;10.95;6.28;;;;;;;;;;10067740;28;20053;-75
2023/10/23 19:28:35;;;;;;;10.02;5.90;;;;;;;;;;10068207;28;20050;-75
2023/10/23 19:33:27;;;;;;;14.20;8.60;;;;;;;;;;10066969;28;20456;-73
2023/10/23 19:38:19;;;;;;;11.55;7.70;;;;;;;;;;10068803;28;20041;-75
2023/10/23 19:43:16;;;;;;;9.15;5.00;;;;;;;;;;10068512;28;20380;-74
2023/10/23 19:48:12;;;;;;;6.35;5.13;;;;;;;;;;10063126;28;20164;-73
2023/10/23 19:53:05;;;;;;;10.40;6.00;;;;;;;;;;10060784;28;20044;-74
2023/10/23 19:57:58;;;;;;;11.65;6.47;;;;;;;;;;10061521;28;20408;-75
2023/10/23 20:02:50;;;;;;;9.38;5.63;;;;;;;;;;10061800;28;20060;-74
2023/10/23 20:07:42;;;;;;;8.18;6.70;;;;;;;;;;10061345;28;20052;-73
2023/10/23 20:12:34;;;;;;;10.27;6.00;;;;;;;;;;10064125;28;20046;-73
2023/10/23 20:17:27;;;;;;;11.57;6.90;;;;;;;;;;10059851;28;20739;-75
2023/10/23 20:22:19;;;;;;;10.95;8.05;;;;;;;;;;10053662;28;20491;-74
2023/10/23 20:27:11;;;;;;;8.98;6.03;;;;;;;;;;10052354;28;20051;-74
2023/10/23 20:32:03;;;;;;;12.52;6.40;;;;;;;;;;10057276;28;20064;-74
2023/10/23 20:36:55;;;;;;;8.48;6.38;;;;;;;;;;10058098;28;20050;-74
2023/10/23 20:41:47;;;;;;;11.70;7.50;;;;;;;;;;10048548;28;20091;-75
2023/10/23 20:46:39;;;;;;;10.02;8.23;;;;;;;;;;10061466;28;20458;-75
2023/10/23 20:51:31;;;;;;;11.20;7.18;;;;;;;;;;10059765;28;20042;-76
2023/10/23 20:56:23;;;;;;;12.55;7.38;;;;;;;;;;10060369;28;20034;-75
2023/10/23 21:01:15;;;;;;;15.07;9.18;;;;;;;;;;10062266;28;20132;-75
2023/10/23 21:06:07;;;;;;;11.95;8.75;;;;;;;;;;10064638;28;20058;-75
2023/10/23 21:10:59;;;;;;;13.32;8.65;;;;;;;;;;10052544;28;20970;-75
2023/10/23 21:15:51;;;;;;;11.80;7.93;;;;;;;;;;10034371;28;20046;-75
2023/10/23 21:20:42;;;;;;;13.40;8.23;;;;;;;;;;10044656;28;20045;-72
2023/10/23 21:25:34;;;;;;;11.40;7.85;;;;;;;;;;10064917;28;20045;-74
2023/10/23 21:30:26;;;;;;;14.20;8.13;;;;;;;;;;10064867;28;20041;-74
2023/10/23 21:35:18;;;;;;;13.35;7.80;;;;;;;;;;10062399;28;20041;-73
2023/10/23 21:40:10;;;;;;;11.80;8.00;;;;;;;;;;10060905;28;20053;-74
2023/10/23 21:45:03;;;;;;;11.23;8.02;;;;;;;;;;10059962;28;20080;-75
2023/10/23 21:49:55;;;;;;;10.52;8.05;;;;;;;;;;10060852;28;20095;-74
2023/10/23 21:54:47;;;;;;;10.95;8.10;;;;;;;;;;10064916;28;20097;-72
2023/10/23 21:59:39;;;;;;;13.85;8.27;;;;;;;;;;10064055;28;20034;-73
2023/10/23 22:04:31;;;;;;;14.63;9.02;;;;;;;;;;10064351;28;20049;-74
2023/10/23 22:09:23;;;;;;;19.83;11.43;;;;;;;;;;10064505;28;20043;-74
2023/10/23 22:14:16;;;;;;;13.48;10.93;;;;;;;;;;10064018;28;20099;-73
2023/10/23 22:19:07;;;;;;;11.13;9.50;;;;;;;;;;10063142;28;20136;-73
2023/10/23 22:23:59;;;;;;;10.88;8.65;;;;;;;;;;10064817;28;20476;-73
2023/10/23 22:28:51;;;;;;;17.45;10.35;;;;;;;;;;10063936;28;20057;-74
2023/10/23 22:33:43;;;;;;;13.25;10.18;;;;;;;;;;10064261;28;20044;-74
2023/10/23 22:38:35;;;;;;;13.35;9.13;;;;;;;;;;10063875;28;20033;-72
2023/10/23 22:43:27;;;;;;;12.27;10.80;;;;;;;;;;10068832;28;20041;-75
2023/10/23 22:48:19;;;;;;;16.38;11.93;;;;;;;;;;10071505;28;20077;-74
2023/10/23 22:53:12;;;;;;;13.32;10.65;;;;;;;;;;10071829;28;20133;-75
2023/10/23 22:58:07;;;;;;;15.65;12.63;;;;;;;;;;10070825;28;20045;-74
2023/10/23 23:02:59;;;;;;;16.15;12.88;;;;;;;;;;10070489;28;20064;-74
2023/10/23 23:07:54;;;;;;;22.45;15.95;;;;;;;;;;10070758;28;20052;-75
2023/10/23 23:12:46;;;;;;;17.30;13.80;;;;;;;;;;10070698;28;20068;-73
2023/10/23 23:17:53;;;;;;;20.10;14.30;;;;;;;;;;10058570;28;20063;-74
2023/10/23 23:22:45;;;;;;;19.67;14.63;;;;;;;;;;10027915;28;20050;-73
2023/10/23 23:27:37;;;;;;;18.15;14.93;;;;;;;;;;10032178;28;20045;-73
2023/10/23 23:32:29;;;;;;;18.80;16.10;;;;;;;;;;10032051;28;20568;-75
2023/10/23 23:37:21;;;;;;;17.73;15.07;;;;;;;;;;10033560;28;20038;-73
2023/10/23 23:42:13;;;;;;;21.05;17.45;;;;;;;;;;10032419;28;20088;-73
2023/10/23 23:47:05;;;;;;;20.15;17.77;;;;;;;;;;10031945;28;20119;-74
2023/10/23 23:51:57;;;;;;;21.83;17.15;;;;;;;;;;10034218;28;20100;-74
2023/10/23 23:56:50;;;;;;;30.73;17.33;;;;;;;;;;10033357;28;20049;-74
